Time;durP1;ratioP1;P1;durP2;ratioP2;P2;SDS_P1;SDS_P2;PMS_P1;PMS_P2;Temp;Humidity;BMP_temperature;BMP_pressure;BME280_temperature;BME280_humidity;BME280_pressure;Samples;Min_cycle;Max_cycle;Signal;HPM_P1;HPM_P2
2020/12/19 00:00:08;;;;;;;34.28;17.45;;;;;;;;;;4964942;28;20090;-73
2020/12/19 00:02:34;;;;;;;39.67;18.58;;;;;;;;;;4970496;28;21013;-73
2020/12/19 00:05:01;;;;;;;42.92;20.45;;;;;;;;;;4969888;28;20114;-73
2020/12/19 00:07:28;;;;;;;47.05;22.42;;;;;;;;;;4962226;28;20051;-73
2020/12/19 00:09:54;;;;;;;61.72;25.08;;;;;;;;;;4964501;28;20043;-73
2020/12/19 00:12:21;;;;;;;46.05;23.98;;;;;;;;;;4973077;28;20054;-73
2020/12/19 00:14:47;;;;;;;59.67;26.92;;;;;;;;;;4961510;28;20102;-73
2020/12/19 00:17:14;;;;;;;64.53;27.60;;;;;;;;;;4959943;28;20046;-73
2020/12/19 00:19:40;;;;;;;74.93;29.85;;;;;;;;;;4968855;28;20055;-73
2020/12/19 00:22:06;;;;;;;80.03;29.13;;;;;;;;;;4964341;28;20189;-73
2020/12/19 00:24:33;;;;;;;79.07;29.75;;;;;;;;;;4967653;28;20046;-74
2020/12/19 00:26:59;;;;;;;76.32;30.85;;;;;;;;;;4970102;28;20497;-73
2020/12/19 00:29:25;;;;;;;107.65;33.78;;;;;;;;;;4950531;28;20043;-73
2020/12/19 00:31:51;;;;;;;100.57;33.53;;;;;;;;;;4969284;28;20077;-74
2020/12/19 00:34:18;;;;;;;121.93;35.17;;;;;;;;;;4964333;28;20047;-74
2020/12/19 00:36:44;;;;;;;109.97;34.83;;;;;;;;;;4964141;28;20042;-73
2020/12/19 00:39:11;;;;;;;122.53;40.20;;;;;;;;;;4965768;28;20047;-74
2020/12/19 00:41:37;;;;;;;125.93;40.80;;;;;;;;;;4970352;28;20038;-74
2020/12/19 00:44:03;;;;;;;131.40;41.03;;;;;;;;;;4963478;28;20121;-74
2020/12/19 00:46:29;;;;;;;148.07;41.85;;;;;;;;;;4965723;28;20081;-74
2020/12/19 00:48:55;;;;;;;132.77;41.40;;;;;;;;;;4966511;28;20130;-74
2020/12/19 00:51:22;;;;;;;150.02;43.25;;;;;;;;;;4967006;28;20443;-73
2020/12/19 00:53:49;;;;;;;181.70;43.92;;;;;;;;;;4968524;28;20039;-74
2020/12/19 00:56:16;;;;;;;159.18;43.50;;;;;;;;;;4966939;28;20039;-73
2020/12/19 00:58:43;;;;;;;177.85;44.40;;;;;;;;;;4962907;28;20522;-73
2020/12/19 01:01:09;;;;;;;101.00;35.35;;;;;;;;;;4969120;28;20046;-73
2020/12/19 01:03:35;;;;;;;162.38;42.42;;;;;;;;;;4968390;28;20456;-73
2020/12/19 01:06:01;;;;;;;133.00;39.88;;;;;;;;;;4961430;28;20047;-74
2020/12/19 01:08:28;;;;;;;139.18;40.30;;;;;;;;;;4962993;28;20054;-74
2020/12/19 01:10:54;;;;;;;117.93;37.63;;;;;;;;;;4964966;28;20058;-73
2020/12/19 01:13:20;;;;;;;128.77;37.85;;;;;;;;;;4969054;28;20079;-73
2020/12/19 01:15:46;;;;;;;121.60;36.97;;;;;;;;;;4970332;28;20039;-73
2020/12/19 01:18:12;;;;;;;119.88;36.33;;;;;;;;;;4961716;28;20049;-74
2020/12/19 01:20:39;;;;;;;101.43;34.58;;;;;;;;;;4964313;28;20546;-73
2020/12/19 01:23:05;;;;;;;119.50;37.20;;;;;;;;;;4963375;28;20042;-73
2020/12/19 01:25:31;;;;;;;118.25;36.20;;;;;;;;;;4956391;28;20043;-73
2020/12/19 01:27:57;;;;;;;124.07;37.25;;;;;;;;;;4969385;28;20043;-72
2020/12/19 01:30:23;;;;;;;132.77;40.15;;;;;;;;;;4970741;28;20505;-72
2020/12/19 01:32:50;;;;;;;158.45;40.75;;;;;;;;;;4977192;28;20046;-73
2020/12/19 01:35:34;;;;;;;141.43;37.80;;;;;;;;;;4965015;28;20047;-72
2020/12/19 01:38:00;;;;;;;120.65;35.40;;;;;;;;;;4959310;28;20043;-72
2020/12/19 01:40:26;;;;;;;154.63;40.25;;;;;;;;;;4966714;28;20194;-73
2020/12/19 01:42:52;;;;;;;135.57;40.88;;;;;;;;;;4964384;28;20043;-72
2020/12/19 01:45:19;;;;;;;147.15;41.88;;;;;;;;;;4966377;28;20042;-73
2020/12/19 01:47:46;;;;;;;161.13;40.63;;;;;;;;;;4967782;28;20047;-72
2020/12/19 01:50:12;;;;;;;132.10;39.70;;;;;;;;;;4963057;28;20039;-73
2020/12/19 01:52:39;;;;;;;137.02;41.47;;;;;;;;;;4965103;28;20713;-73
2020/12/19 01:55:05;;;;;;;165.07;41.43;;;;;;;;;;4964445;28;20047;-73
2020/12/19 01:57:32;;;;;;;115.22;36.60;;;;;;;;;;4964324;28;20039;-73
2020/12/19 01:59:59;;;;;;;113.78;36.72;;;;;;;;;;4965126;28;20054;-73
2020/12/19 02:02:26;;;;;;;110.65;33.85;;;;;;;;;;4970560;28;20043;-73
2020/12/19 02:04:53;;;;;;;96.32;33.10;;;;;;;;;;4963215;28;20372;-73
2020/12/19 02:07:20;;;;;;;100.45;34.97;;;;;;;;;;4957532;28;20057;-73
2020/12/19 02:09:46;;;;;;;95.85;32.95;;;;;;;;;;4959644;28;20183;-73
2020/12/19 02:12:13;;;;;;;91.90;32.38;;;;;;;;;;4957243;28;20409;-73
2020/12/19 02:14:39;;;;;;;90.13;32.35;;;;;;;;;;4961116;28;20075;-73
2020/12/19 02:17:09;;;;;;;109.60;34.22;;;;;;;;;;4945625;28;20066;-72
2020/12/19 02:19:40;;;;;;;99.63;33.95;;;;;;;;;;4967326;28;20650;-73
2020/12/19 02:22:07;;;;;;;98.30;34.78;;;;;;;;;;4968781;28;20458;-73
2020/12/19 02:24:33;;;;;;;94.07;34.23;;;;;;;;;;4971488;28;20043;-73
2020/12/19 02:27:00;;;;;;;96.78;34.33;;;;;;;;;;4965662;28;20113;-73
2020/12/19 02:29:28;;;;;;;93.45;32.30;;;;;;;;;;4968973;28;20133;-73
2020/12/19 02:31:55;;;;;;;90.32;32.55;;;;;;;;;;4973405;28;20137;-73
2020/12/19 02:34:21;;;;;;;96.63;33.53;;;;;;;;;;4965811;28;20094;-73
2020/12/19 02:36:48;;;;;;;103.03;34.97;;;;;;;;;;4969663;28;20410;-73
2020/12/19 02:39:14;;;;;;;103.35;36.13;;;;;;;;;;4967608;28;20375;-73
2020/12/19 02:41:44;;;;;;;95.28;34.25;;;;;;;;;;4974374;28;20050;-73
2020/12/19 02:44:13;;;;;;;117.07;37.33;;;;;;;;;;4966850;28;20047;-73
2020/12/19 02:46:39;;;;;;;106.90;36.17;;;;;;;;;;4962910;28;20045;-73
2020/12/19 02:49:06;;;;;;;114.68;38.70;;;;;;;;;;4972839;28;20046;-73
2020/12/19 02:51:32;;;;;;;109.97;37.47;;;;;;;;;;4970714;28;20545;-72
2020/12/19 02:53:58;;;;;;;121.00;40.25;;;;;;;;;;4969801;28;20059;-73
2020/12/19 02:56:25;;;;;;;116.57;40.85;;;;;;;;;;4966133;28;20049;-73
2020/12/19 02:58:51;;;;;;;105.00;39.22;;;;;;;;;;4958726;28;20493;-73
2020/12/19 03:01:17;;;;;;;120.38;42.38;;;;;;;;;;4962079;28;20069;-72
2020/12/19 03:03:43;;;;;;;119.15;41.25;;;;;;;;;;4973149;28;20131;-73
2020/12/19 03:06:26;;;;;;;105.53;39.15;;;;;;;;;;4968574;28;20494;-73
2020/12/19 03:08:52;;;;;;;114.20;40.53;;;;;;;;;;4966117;28;20057;-73
2020/12/19 03:11:19;;;;;;;111.78;41.75;;;;;;;;;;4972758;28;20050;-72
2020/12/19 03:13:45;;;;;;;119.97;42.22;;;;;;;;;;4966228;28;20055;-72
2020/12/19 03:16:12;;;;;;;115.13;42.22;;;;;;;;;;4970005;28;20041;-72
2020/12/19 03:18:38;;;;;;;120.30;43.13;;;;;;;;;;4967371;28;20046;-72
2020/12/19 03:21:04;;;;;;;121.93;43.15;;;;;;;;;;4967219;28;20039;-72
2020/12/19 03:23:30;;;;;;;118.70;44.13;;;;;;;;;;4954742;28;20055;-72
2020/12/19 03:25:57;;;;;;;126.82;44.08;;;;;;;;;;4970224;28;20043;-72
2020/12/19 03:28:23;;;;;;;107.68;42.08;;;;;;;;;;4964377;28;20043;-72
2020/12/19 03:30:49;;;;;;;117.32;43.67;;;;;;;;;;4962210;28;20137;-72
2020/12/19 03:33:16;;;;;;;104.60;40.97;;;;;;;;;;4963555;28;20051;-72
2020/12/19 03:35:42;;;;;;;112.68;42.45;;;;;;;;;;4962254;28;20773;-72
2020/12/19 03:38:08;;;;;;;110.90;43.72;;;;;;;;;;4958588;28;20049;-72
2020/12/19 03:40:35;;;;;;;111.25;43.08;;;;;;;;;;4960988;28;20074;-73
2020/12/19 03:43:01;;;;;;;114.15;44.08;;;;;;;;;;4961481;28;20539;-72
2020/12/19 03:45:28;;;;;;;110.57;42.10;;;;;;;;;;4963940;28;20043;-72
2020/12/19 03:47:54;;;;;;;122.75;44.10;;;;;;;;;;4965235;28;20047;-72
2020/12/19 03:50:21;;;;;;;122.45;45.50;;;;;;;;;;4959114;28;20039;-72
2020/12/19 03:52:47;;;;;;;123.20;44.73;;;;;;;;;;4968355;28;20039;-72
2020/12/19 03:55:14;;;;;;;116.70;44.17;;;;;;;;;;4969340;28;20078;-72
2020/12/19 03:57:40;;;;;;;122.20;45.42;;;;;;;;;;4972785;28;20049;-72
2020/12/19 04:00:08;;;;;;;108.07;41.95;;;;;;;;;;4969388;28;20117;-72
2020/12/19 04:02:37;;;;;;;117.95;44.90;;;;;;;;;;4969245;28;20046;-72
2020/12/19 04:05:07;;;;;;;130.50;45.53;;;;;;;;;;4964929;28;20058;-72
2020/12/19 04:07:33;;;;;;;124.63;46.03;;;;;;;;;;4968699;28;20070;-72
2020/12/19 04:10:00;;;;;;;120.32;45.55;;;;;;;;;;4968606;28;20528;-72
2020/12/19 04:12:26;;;;;;;106.90;44.38;;;;;;;;;;4967202;28;20413;-72
2020/12/19 04:14:52;;;;;;;118.60;45.22;;;;;;;;;;4963894;28;20109;-72
2020/12/19 04:17:19;;;;;;;129.50;44.88;;;;;;;;;;4969404;28;20490;-72
2020/12/19 04:19:45;;;;;;;118.82;43.25;;;;;;;;;;4965271;28;20058;-72
2020/12/19 04:22:12;;;;;;;114.25;43.00;;;;;;;;;;4970043;28;20077;-72
2020/12/19 04:24:38;;;;;;;109.15;43.05;;;;;;;;;;4968361;28;20043;-72
2020/12/19 04:27:04;;;;;;;100.68;41.65;;;;;;;;;;4966209;28;20116;-72
2020/12/19 04:29:31;;;;;;;101.78;42.63;;;;;;;;;;4967737;28;20233;-72
2020/12/19 04:31:58;;;;;;;98.18;41.20;;;;;;;;;;4970505;28;20042;-72
2020/12/19 04:34:24;;;;;;;109.55;41.30;;;;;;;;;;4961834;28;20104;-72
2020/12/19 04:36:51;;;;;;;97.63;39.47;;;;;;;;;;4967620;28;20114;-72
2020/12/19 04:39:17;;;;;;;101.00;40.55;;;;;;;;;;4970991;28;20070;-72
2020/12/19 04:41:43;;;;;;;96.50;41.60;;;;;;;;;;4967305;28;20058;-72
2020/12/19 04:44:10;;;;;;;95.68;40.13;;;;;;;;;;4969106;28;20095;-72
2020/12/19 04:46:39;;;;;;;89.65;39.63;;;;;;;;;;4972668;28;20101;-72
2020/12/19 04:49:05;;;;;;;102.55;41.10;;;;;;;;;;4962244;28;20039;-72
2020/12/19 04:51:32;;;;;;;101.13;40.15;;;;;;;;;;4970797;28;20118;-72
2020/12/19 04:53:58;;;;;;;95.38;40.65;;;;;;;;;;4965597;28;20142;-72
2020/12/19 04:56:26;;;;;;;86.93;39.05;;;;;;;;;;4970379;28;20055;-72
2020/12/19 04:58:53;;;;;;;98.43;40.83;;;;;;;;;;4966126;28;20043;-72
2020/12/19 05:01:19;;;;;;;93.28;40.15;;;;;;;;;;4965854;28;20487;-72
2020/12/19 05:03:47;;;;;;;91.00;38.00;;;;;;;;;;4971932;28;20042;-72
2020/12/19 05:06:16;;;;;;;86.78;37.97;;;;;;;;;;4958741;28;20105;-72
2020/12/19 05:08:42;;;;;;;86.53;39.25;;;;;;;;;;4961067;28;20117;-72
2020/12/19 05:11:08;;;;;;;83.75;39.90;;;;;;;;;;4959081;28;20051;-72
2020/12/19 05:13:34;;;;;;;88.95;37.30;;;;;;;;;;4960884;28;20039;-72
2020/12/19 05:16:01;;;;;;;75.35;36.30;;;;;;;;;;4961739;28;20039;-72
2020/12/19 05:18:27;;;;;;;76.68;35.65;;;;;;;;;;4964832;28;20056;-72
2020/12/19 05:20:54;;;;;;;86.90;40.33;;;;;;;;;;4960598;28;20062;-72
2020/12/19 05:23:20;;;;;;;90.03;40.25;;;;;;;;;;4963025;28;20039;-72
2020/12/19 05:25:48;;;;;;;91.78;40.80;;;;;;;;;;4967363;28;20482;-72
2020/12/19 05:28:15;;;;;;;86.75;38.42;;;;;;;;;;4966783;28;20038;-72
2020/12/19 05:30:42;;;;;;;82.93;39.33;;;;;;;;;;4970137;28;20748;-72
2020/12/19 05:33:10;;;;;;;85.60;38.95;;;;;;;;;;4969985;28;20125;-72
2020/12/19 05:35:37;;;;;;;89.20;40.10;;;;;;;;;;4965338;28;20546;-72
2020/12/19 05:38:04;;;;;;;86.10;37.77;;;;;;;;;;4964998;28;20051;-72
2020/12/19 05:40:31;;;;;;;83.20;36.83;;;;;;;;;;4963295;28;20326;-72
2020/12/19 05:42:57;;;;;;;84.77;35.90;;;;;;;;;;4961909;28;20057;-72
2020/12/19 05:45:24;;;;;;;81.43;36.75;;;;;;;;;;4965450;28;20304;-72
2020/12/19 05:47:51;;;;;;;91.10;37.63;;;;;;;;;;4971847;28;20055;-72
2020/12/19 05:50:18;;;;;;;70.90;35.88;;;;;;;;;;4962080;28;20039;-72
2020/12/19 05:52:46;;;;;;;77.70;36.42;;;;;;;;;;4959265;28;20065;-72
2020/12/19 05:55:13;;;;;;;73.38;34.47;;;;;;;;;;4962677;28;20055;-72
2020/12/19 05:57:40;;;;;;;70.93;34.20;;;;;;;;;;4969596;28;20381;-72
2020/12/19 06:00:07;;;;;;;80.60;35.83;;;;;;;;;;4966983;28;20059;-72
2020/12/19 06:02:37;;;;;;;73.80;33.85;;;;;;;;;;4953201;28;20042;-72
2020/12/19 06:05:10;;;;;;;86.45;35.00;;;;;;;;;;4962335;28;20051;-72
2020/12/19 06:07:44;;;;;;;76.72;33.97;;;;;;;;;;4947482;28;20038;-72
2020/12/19 06:10:11;;;;;;;71.00;32.20;;;;;;;;;;4957663;28;20066;-72
2020/12/19 06:12:44;;;;;;;72.32;32.08;;;;;;;;;;4962479;28;20042;-72
2020/12/19 06:15:33;;;;;;;72.03;32.42;;;;;;;;;;4937411;28;20047;-72
2020/12/19 06:18:06;;;;;;;66.95;31.48;;;;;;;;;;4963844;28;20050;-72
2020/12/19 06:20:33;;;;;;;64.47;30.10;;;;;;;;;;4959158;28;20047;-72
2020/12/19 06:22:59;;;;;;;65.57;30.65;;;;;;;;;;4961867;28;20150;-72
2020/12/19 06:25:39;;;;;;;64.57;30.40;;;;;;;;;;4961124;28;20046;-72
2020/12/19 06:28:05;;;;;;;73.53;30.40;;;;;;;;;;4959141;28;20486;-72
2020/12/19 06:30:31;;;;;;;64.10;30.85;;;;;;;;;;4967677;28;20042;-72
2020/12/19 06:33:07;;;;;;;81.03;29.63;;;;;;;;;;4964506;28;20071;-72
2020/12/19 06:35:34;;;;;;;60.00;29.38;;;;;;;;;;4956726;28;20059;-72
2020/12/19 06:38:00;;;;;;;67.38;28.58;;;;;;;;;;4958763;28;20090;-72
2020/12/19 06:40:26;;;;;;;61.85;29.17;;;;;;;;;;4963557;28;20039;-72
2020/12/19 06:43:09;;;;;;;58.10;27.08;;;;;;;;;;4966199;28;20043;-72
2020/12/19 06:45:35;;;;;;;62.47;26.33;;;;;;;;;;4959386;28;20047;-72
2020/12/19 06:48:02;;;;;;;59.45;27.20;;;;;;;;;;4958759;28;20503;-72
2020/12/19 06:50:47;;;;;;;60.03;26.63;;;;;;;;;;4962930;28;20046;-72
2020/12/19 06:53:16;;;;;;;68.28;26.65;;;;;;;;;;4960718;28;20129;-72
2020/12/19 06:55:42;;;;;;;64.03;27.70;;;;;;;;;;4962763;28;20490;-72
2020/12/19 06:58:09;;;;;;;64.63;27.13;;;;;;;;;;4961135;28;20122;-72
2020/12/19 07:00:35;;;;;;;58.78;26.38;;;;;;;;;;4958877;28;20466;-72
2020/12/19 07:03:03;;;;;;;53.63;25.45;;;;;;;;;;4963512;28;20054;-72
2020/12/19 07:05:30;;;;;;;55.28;25.08;;;;;;;;;;4971086;28;20039;-72
2020/12/19 07:08:15;;;;;;;55.05;24.25;;;;;;;;;;4961339;28;20046;-72
2020/12/19 07:10:41;;;;;;;64.05;25.75;;;;;;;;;;4969052;28;20058;-72
2020/12/19 07:13:08;;;;;;;62.08;25.77;;;;;;;;;;4969145;28;20117;-72
2020/12/19 07:15:40;;;;;;;63.55;25.48;;;;;;;;;;4968266;28;20051;-72
2020/12/19 07:18:22;;;;;;;51.03;24.75;;;;;;;;;;4959825;28;20043;-72
2020/12/19 07:20:58;;;;;;;53.42;24.60;;;;;;;;;;4965463;28;20039;-72
2020/12/19 07:23:24;;;;;;;63.47;25.27;;;;;;;;;;4947040;28;20109;-72
2020/12/19 07:25:50;;;;;;;50.28;22.75;;;;;;;;;;4971303;28;20562;-72
2020/12/19 07:28:16;;;;;;;56.38;24.45;;;;;;;;;;4965246;28;20042;-72
2020/12/19 07:30:43;;;;;;;60.30;24.75;;;;;;;;;;4962927;28;20102;-72
2020/12/19 07:33:10;;;;;;;70.47;23.65;;;;;;;;;;4951007;28;20062;-72
2020/12/19 07:35:36;;;;;;;47.05;21.88;;;;;;;;;;4963730;28;20557;-72
2020/12/19 07:38:03;;;;;;;51.97;24.15;;;;;;;;;;4965877;28;20039;-73
2020/12/19 07:40:30;;;;;;;53.08;24.40;;;;;;;;;;4963456;28;20490;-72
2020/12/19 07:43:03;;;;;;;50.92;22.05;;;;;;;;;;4961865;28;20035;-73
2020/12/19 07:45:29;;;;;;;56.33;22.95;;;;;;;;;;4968329;28;20034;-73
2020/12/19 07:47:56;;;;;;;48.58;23.27;;;;;;;;;;4965194;28;20078;-72
2020/12/19 07:50:22;;;;;;;50.70;21.73;;;;;;;;;;4962901;28;20406;-73
2020/12/19 07:52:57;;;;;;;49.50;23.52;;;;;;;;;;4964773;28;20040;-74
2020/12/19 07:55:23;;;;;;;43.45;22.20;;;;;;;;;;4959685;28;20050;-73
2020/12/19 07:57:52;;;;;;;46.50;22.20;;;;;;;;;;4963761;28;20035;-73
2020/12/19 08:00:18;;;;;;;45.92;21.73;;;;;;;;;;4958090;28;20047;-74
2020/12/19 08:02:46;;;;;;;49.83;22.25;;;;;;;;;;4965673;28;20458;-74
2020/12/19 08:05:12;;;;;;;47.65;22.02;;;;;;;;;;4963127;28;20573;-73
2020/12/19 08:07:39;;;;;;;50.25;22.73;;;;;;;;;;4968667;28;20051;-73
2020/12/19 08:10:09;;;;;;;44.13;21.88;;;;;;;;;;4970273;28;20498;-73
2020/12/19 08:12:35;;;;;;;42.08;21.23;;;;;;;;;;4958706;28;20095;-73
2020/12/19 08:15:03;;;;;;;46.05;22.13;;;;;;;;;;4961575;28;20057;-73
2020/12/19 08:17:30;;;;;;;43.67;19.73;;;;;;;;;;4965579;28;20062;-73
2020/12/19 08:19:57;;;;;;;44.80;20.08;;;;;;;;;;4968038;28;20095;-74
2020/12/19 08:22:23;;;;;;;;;;;;;;;;;;4970092;28;20050;-74
2020/12/19 08:24:58;;;;;;;42.70;19.40;;;;;;;;;;4963380;28;19929;-73
2020/12/19 08:27:40;;;;;;;45.70;19.33;;;;;;;;;;4963120;28;20049;-73
2020/12/19 08:30:07;;;;;;;43.75;20.23;;;;;;;;;;4966088;28;20406;-73
2020/12/19 08:32:34;;;;;;;46.78;20.33;;;;;;;;;;4962839;28;20046;-74
2020/12/19 08:35:01;;;;;;;39.80;20.90;;;;;;;;;;4964014;28;20045;-73
2020/12/19 08:37:27;;;;;;;47.88;20.20;;;;;;;;;;4962556;28;20513;-73
2020/12/19 08:40:02;;;;;;;40.85;19.17;;;;;;;;;;4958767;28;20043;-73
2020/12/19 08:42:33;;;;;;;41.05;19.98;;;;;;;;;;4970167;28;20448;-73
2020/12/19 08:45:16;;;;;;;44.45;19.10;;;;;;;;;;4960708;28;20047;-73
2020/12/19 08:47:43;;;;;;;39.78;18.13;;;;;;;;;;4970968;28;20087;-73
2020/12/19 08:50:09;;;;;;;47.45;20.20;;;;;;;;;;4963378;28;20035;-73
2020/12/19 08:52:36;;;;;;;35.58;18.88;;;;;;;;;;4964952;28;20054;-73
2020/12/19 08:55:02;;;;;;;47.63;20.05;;;;;;;;;;4962225;28;20046;-73
2020/12/19 08:57:30;;;;;;;49.97;19.48;;;;;;;;;;4964869;28;20026;-73
2020/12/19 09:00:12;;;;;;;44.08;18.58;;;;;;;;;;4964115;28;20050;-73
2020/12/19 09:02:40;;;;;;;42.40;18.83;;;;;;;;;;4964397;28;20034;-73
2020/12/19 09:05:06;;;;;;;33.55;17.50;;;;;;;;;;4969833;28;20094;-73
2020/12/19 09:07:32;;;;;;;46.33;19.77;;;;;;;;;;4969844;28;20394;-73
2020/12/19 09:10:21;;;;;;;47.70;19.92;;;;;;;;;;4967396;28;20565;-73
2020/12/19 09:12:48;;;;;;;41.88;18.83;;;;;;;;;;4964787;28;20642;-73
2020/12/19 09:15:18;;;;;;;36.28;18.13;;;;;;;;;;4962078;28;20041;-73
2020/12/19 09:17:44;;;;;;;47.28;19.85;;;;;;;;;;4965008;28;20046;-73
2020/12/19 09:20:10;;;;;;;40.42;19.02;;;;;;;;;;4965921;28;20047;-73
2020/12/19 09:22:37;;;;;;;44.33;18.70;;;;;;;;;;4965219;28;20054;-73
2020/12/19 09:25:03;;;;;;;39.78;18.00;;;;;;;;;;4967384;28;20055;-73
2020/12/19 09:27:29;;;;;;;48.08;18.67;;;;;;;;;;4962709;28;20430;-73
2020/12/19 09:29:55;;;;;;;38.80;18.95;;;;;;;;;;4966716;28;20547;-73
2020/12/19 09:32:21;;;;;;;36.97;20.00;;;;;;;;;;4962867;28;20050;-73
2020/12/19 09:34:47;;;;;;;36.72;17.27;;;;;;;;;;4941110;28;20047;-73
2020/12/19 09:37:14;;;;;;;40.05;18.45;;;;;;;;;;4960809;28;20086;-73
2020/12/19 09:39:40;;;;;;;32.45;17.02;;;;;;;;;;4963051;28;20117;-73
2020/12/19 09:42:06;;;;;;;32.70;17.95;;;;;;;;;;4962167;28;20042;-74
2020/12/19 09:44:33;;;;;;;36.88;17.92;;;;;;;;;;4962034;28;20090;-73
2020/12/19 09:46:59;;;;;;;33.95;16.67;;;;;;;;;;4965750;28;20047;-73
2020/12/19 09:49:25;;;;;;;31.17;17.20;;;;;;;;;;4956552;28;20058;-73
2020/12/19 09:51:51;;;;;;;32.70;16.83;;;;;;;;;;4961522;28;20596;-73
2020/12/19 09:54:17;;;;;;;31.98;17.60;;;;;;;;;;4957513;28;20051;-73
2020/12/19 09:56:43;;;;;;;32.63;16.83;;;;;;;;;;4959449;28;20102;-73
2020/12/19 09:59:10;;;;;;;30.55;16.85;;;;;;;;;;4960349;28;20047;-73
2020/12/19 10:01:36;;;;;;;32.03;16.70;;;;;;;;;;4960326;28;20134;-73
2020/12/19 10:04:02;;;;;;;34.63;17.15;;;;;;;;;;4941124;28;20054;-73
2020/12/19 10:06:28;;;;;;;44.22;17.77;;;;;;;;;;4959881;28;20055;-73
2020/12/19 10:08:54;;;;;;;27.75;16.08;;;;;;;;;;4955045;28;20104;-73
2020/12/19 10:11:20;;;;;;;37.75;16.23;;;;;;;;;;4947633;29;20054;-73
2020/12/19 10:13:47;;;;;;;32.50;16.23;;;;;;;;;;4942951;29;20067;-73
2020/12/19 10:16:13;;;;;;;35.00;15.77;;;;;;;;;;4938147;29;20051;-73
2020/12/19 10:18:39;;;;;;;33.30;15.77;;;;;;;;;;4949593;29;20066;-73
2020/12/19 10:21:06;;;;;;;31.27;14.80;;;;;;;;;;4947662;29;20058;-73
2020/12/19 10:23:34;;;;;;;33.83;15.45;;;;;;;;;;4946708;29;20411;-73
2020/12/19 10:26:01;;;;;;;29.00;16.15;;;;;;;;;;4943294;29;20051;-73
2020/12/19 10:28:27;;;;;;;30.20;16.15;;;;;;;;;;4941720;29;20431;-73
2020/12/19 10:30:53;;;;;;;30.80;15.50;;;;;;;;;;4941549;28;20130;-73
2020/12/19 10:33:20;;;;;;;31.05;16.08;;;;;;;;;;4921585;29;20103;-73
2020/12/19 10:35:46;;;;;;;33.33;15.85;;;;;;;;;;4947433;28;20078;-73
2020/12/19 10:38:13;;;;;;;33.40;15.02;;;;;;;;;;4946678;28;20063;-73
2020/12/19 10:40:56;;;;;;;34.72;16.98;;;;;;;;;;4952933;28;20130;-74
2020/12/19 10:43:22;;;;;;;32.00;15.82;;;;;;;;;;4960126;28;20126;-73
2020/12/19 10:45:48;;;;;;;33.10;15.35;;;;;;;;;;4955008;28;20059;-74
2020/12/19 10:48:15;;;;;;;38.00;15.13;;;;;;;;;;4944548;29;20449;-73
2020/12/19 10:50:43;;;;;;;34.20;15.75;;;;;;;;;;4953705;29;20250;-73
2020/12/19 10:53:09;;;;;;;38.25;15.50;;;;;;;;;;4942986;29;20048;-73
2020/12/19 10:55:37;;;;;;;27.60;15.75;;;;;;;;;;4950969;29;20054;-73
2020/12/19 10:58:03;;;;;;;31.27;16.00;;;;;;;;;;4947484;29;20039;-72
2020/12/19 11:00:29;;;;;;;31.48;17.45;;;;;;;;;;4930886;29;20538;-72
2020/12/19 11:02:56;;;;;;;40.83;17.13;;;;;;;;;;4941708;29;20035;-72
2020/12/19 11:05:22;;;;;;;30.23;16.67;;;;;;;;;;4947591;29;20054;-72
2020/12/19 11:07:48;;;;;;;36.10;15.93;;;;;;;;;;4939192;29;20043;-72
2020/12/19 11:10:15;;;;;;;35.10;16.05;;;;;;;;;;4958913;28;20493;-73
2020/12/19 11:12:41;;;;;;;39.00;17.83;;;;;;;;;;4966621;28;20043;-73
2020/12/19 11:15:07;;;;;;;25.65;14.43;;;;;;;;;;4964455;28;20050;-72
2020/12/19 11:17:33;;;;;;;31.75;15.05;;;;;;;;;;4966197;28;20046;-72
2020/12/19 11:20:02;;;;;;;28.88;16.02;;;;;;;;;;4969681;28;20039;-73
2020/12/19 11:22:29;;;;;;;23.83;14.70;;;;;;;;;;4974570;28;20038;-72
2020/12/19 11:24:55;;;;;;;32.23;14.77;;;;;;;;;;4969589;28;20389;-72
2020/12/19 11:27:21;;;;;;;27.05;14.40;;;;;;;;;;4968656;28;20469;-72
2020/12/19 11:29:47;;;;;;;29.83;13.30;;;;;;;;;;4960129;28;20052;-72
2020/12/19 11:32:13;;;;;;;27.50;13.23;;;;;;;;;;4960846;28;20046;-72
2020/12/19 11:34:39;;;;;;;24.73;12.82;;;;;;;;;;4965043;28;20050;-71
2020/12/19 11:37:06;;;;;;;26.50;12.63;;;;;;;;;;4967200;28;20495;-71
2020/12/19 11:39:32;;;;;;;29.25;12.50;;;;;;;;;;4976678;28;20200;-72
2020/12/19 11:42:02;;;;;;;23.80;12.38;;;;;;;;;;4968349;28;20043;-72
2020/12/19 11:44:28;;;;;;;24.23;12.90;;;;;;;;;;4958133;28;20047;-71
2020/12/19 11:46:54;;;;;;;25.38;12.30;;;;;;;;;;4957885;28;20453;-72
2020/12/19 11:49:20;;;;;;;19.38;12.32;;;;;;;;;;4963991;28;20055;-71
2020/12/19 11:51:46;;;;;;;25.55;12.50;;;;;;;;;;4967452;28;20498;-71
2020/12/19 11:54:12;;;;;;;20.70;11.68;;;;;;;;;;4964417;28;20074;-72
2020/12/19 11:56:38;;;;;;;28.80;11.82;;;;;;;;;;4964595;28;20406;-72
2020/12/19 11:59:05;;;;;;;17.80;11.13;;;;;;;;;;4969770;28;20118;-72
2020/12/19 12:01:31;;;;;;;25.45;12.10;;;;;;;;;;4959763;28;20126;-72
2020/12/19 12:03:57;;;;;;;19.60;11.07;;;;;;;;;;4946760;28;20106;-72
2020/12/19 12:06:27;;;;;;;27.48;11.48;;;;;;;;;;4964167;28;20546;-72
2020/12/19 12:08:53;;;;;;;24.92;11.35;;;;;;;;;;4963499;28;21148;-72
2020/12/19 12:11:29;;;;;;;20.75;11.82;;;;;;;;;;4961691;28;20042;-72
2020/12/19 12:13:56;;;;;;;27.17;11.38;;;;;;;;;;4963231;28;20039;-72
2020/12/19 12:16:26;;;;;;;23.00;10.25;;;;;;;;;;4958228;28;20042;-71
2020/12/19 12:18:52;;;;;;;20.92;11.52;;;;;;;;;;4959381;28;20506;-72
2020/12/19 12:21:19;;;;;;;22.75;11.20;;;;;;;;;;4964616;28;20562;-72
2020/12/19 12:23:47;;;;;;;24.63;10.52;;;;;;;;;;4961010;28;20502;-72
2020/12/19 12:26:25;;;;;;;22.42;11.18;;;;;;;;;;4966636;28;20050;-72
2020/12/19 12:28:52;;;;;;;20.42;10.57;;;;;;;;;;4957396;28;20507;-72
2020/12/19 12:31:25;;;;;;;18.98;10.68;;;;;;;;;;4958345;28;20447;-72
2020/12/19 12:33:52;;;;;;;22.00;10.98;;;;;;;;;;4958131;28;20498;-72
2020/12/19 12:36:19;;;;;;;25.33;10.90;;;;;;;;;;4945584;28;20502;-72
2020/12/19 12:38:45;;;;;;;26.30;11.02;;;;;;;;;;4961180;28;20038;-72
2020/12/19 12:41:12;;;;;;;22.55;10.55;;;;;;;;;;4960147;28;20062;-71
2020/12/19 12:43:38;;;;;;;22.67;10.65;;;;;;;;;;4960878;28;20039;-72
2020/12/19 12:46:08;;;;;;;23.65;10.70;;;;;;;;;;4964892;28;20043;-72
2020/12/19 12:48:34;;;;;;;26.98;11.77;;;;;;;;;;4957017;28;20070;-71
2020/12/19 12:51:00;;;;;;;19.37;10.17;;;;;;;;;;4961862;28;20505;-72
2020/12/19 12:53:27;;;;;;;24.58;10.65;;;;;;;;;;4943386;28;20050;-72
2020/12/19 12:55:53;;;;;;;17.98;9.88;;;;;;;;;;4963240;28;20039;-71
2020/12/19 12:58:19;;;;;;;19.83;10.07;;;;;;;;;;4962022;28;20046;-72
2020/12/19 13:00:47;;;;;;;20.27;9.93;;;;;;;;;;4960006;28;20606;-71
2020/12/19 13:03:13;;;;;;;15.23;9.93;;;;;;;;;;4960317;28;20406;-72
2020/12/19 13:05:39;;;;;;;17.40;10.20;;;;;;;;;;4961673;28;20047;-73
2020/12/19 13:08:06;;;;;;;19.73;9.82;;;;;;;;;;4960402;28;20054;-71
2020/12/19 13:10:32;;;;;;;24.17;10.30;;;;;;;;;;4962622;28;20476;-72
2020/12/19 13:13:01;;;;;;;22.10;9.50;;;;;;;;;;4960626;28;20453;-72
2020/12/19 13:15:27;;;;;;;18.50;10.23;;;;;;;;;;4960370;28;20031;-72
2020/12/19 13:17:54;;;;;;;20.92;10.15;;;;;;;;;;4960241;28;20509;-72
2020/12/19 13:20:20;;;;;;;17.55;10.23;;;;;;;;;;4960138;28;20039;-72
2020/12/19 13:22:46;;;;;;;21.20;11.10;;;;;;;;;;4963620;28;20031;-72
2020/12/19 13:25:12;;;;;;;22.83;10.23;;;;;;;;;;4957747;28;20046;-71
2020/12/19 13:27:38;;;;;;;17.40;10.93;;;;;;;;;;4955115;28;20043;-72
2020/12/19 13:30:05;;;;;;;22.23;10.32;;;;;;;;;;4961305;28;20046;-72
2020/12/19 13:32:31;;;;;;;16.80;9.88;;;;;;;;;;4957578;28;20062;-72
2020/12/19 13:34:58;;;;;;;15.30;10.00;;;;;;;;;;4965011;28;20050;-72
2020/12/19 13:37:24;;;;;;;23.80;9.98;;;;;;;;;;4961934;28;20094;-72
2020/12/19 13:39:50;;;;;;;15.25;10.20;;;;;;;;;;4961012;28;20639;-72
2020/12/19 13:42:17;;;;;;;22.23;9.80;;;;;;;;;;4967073;28;20062;-72
2020/12/19 13:44:43;;;;;;;15.80;9.88;;;;;;;;;;4958621;28;20149;-71
2020/12/19 13:47:10;;;;;;;17.88;9.82;;;;;;;;;;4966977;28;20541;-71
2020/12/19 13:49:37;;;;;;;16.95;7.00;;;;;;;;;;4963581;28;20047;-71
2020/12/19 13:52:03;;;;;;;21.05;10.27;;;;;;;;;;4960856;28;20043;-71
2020/12/19 13:54:29;;;;;;;18.45;10.18;;;;;;;;;;4961767;28;20053;-72
2020/12/19 13:56:55;;;;;;;16.98;10.35;;;;;;;;;;4962702;28;20047;-71
2020/12/19 13:59:21;;;;;;;17.38;10.32;;;;;;;;;;4958240;28;20054;-72
2020/12/19 14:01:48;;;;;;;18.65;10.27;;;;;;;;;;4965140;28;20047;-72
2020/12/19 14:04:14;;;;;;;17.70;10.25;;;;;;;;;;4955897;28;20054;-71
2020/12/19 14:06:40;;;;;;;21.65;11.05;;;;;;;;;;4969966;28;20046;-71
2020/12/19 14:09:06;;;;;;;18.55;10.98;;;;;;;;;;4954720;28;20130;-71
2020/12/19 14:11:35;;;;;;;21.80;11.25;;;;;;;;;;4960248;28;20094;-72
2020/12/19 14:14:02;;;;;;;20.40;11.65;;;;;;;;;;4942363;28;20541;-71